sensor_id;sensor_type;location;lat;lon;timestamp;P1;durP1;ratioP1;P2;durP2;ratioP2
10667;SDS011;5382;42.136;24.796;2023-03-14T00:02:16;2.92;;;2.20;;
10667;SDS011;5382;42.136;24.796;2023-03-14T00:04:43;5.00;;;2.60;;
10667;SDS011;5382;42.136;24.796;2023-03-14T00:07:10;3.58;;;2.38;;
10667;SDS011;5382;42.136;24.796;2023-03-14T00:09:37;3.78;;;3.03;;
10667;SDS011;5382;42.136;24.796;2023-03-14T00:12:04;3.70;;;2.65;;
10667;SDS011;5382;42.136;24.796;2023-03-14T00:14:33;2.67;;;2.22;;
10667;SDS011;5382;42.136;24.796;2023-03-14T00:17:01;2.97;;;2.65;;
10667;SDS011;5382;42.136;24.796;2023-03-14T00:19:30;2.10;;;1.90;;
10667;SDS011;5382;42.136;24.796;2023-03-14T00:21:57;8.68;;;2.08;;
10667;SDS011;5382;42.136;24.796;2023-03-14T00:24:23;3.20;;;2.15;;
10667;SDS011;5382;42.136;24.796;2023-03-14T00:26:50;3.10;;;2.15;;
10667;SDS011;5382;42.136;24.796;2023-03-14T00:29:17;5.68;;;2.70;;
10667;SDS011;5382;42.136;24.796;2023-03-14T00:31:44;3.25;;;2.10;;
10667;SDS011;5382;42.136;24.796;2023-03-14T00:34:12;2.40;;;2.13;;
10667;SDS011;5382;42.136;24.796;2023-03-14T00:36:39;2.92;;;1.90;;
10667;SDS011;5382;42.136;24.796;2023-03-14T00:39:06;3.38;;;2.42;;
10667;SDS011;5382;42.136;24.796;2023-03-14T00:41:32;3.30;;;2.33;;
10667;SDS011;5382;42.136;24.796;2023-03-14T00:43:59;3.47;;;2.22;;
10667;SDS011;5382;42.136;24.796;2023-03-14T00:46:26;3.08;;;2.42;;
10667;SDS011;5382;42.136;24.796;2023-03-14T00:48:53;5.38;;;2.50;;
10667;SDS011;5382;42.136;24.796;2023-03-14T00:51:21;3.95;;;2.63;;
10667;SDS011;5382;42.136;24.796;2023-03-14T00:53:48;6.00;;;2.80;;
10667;SDS011;5382;42.136;24.796;2023-03-14T00:56:14;6.47;;;2.80;;
10667;SDS011;5382;42.136;24.796;2023-03-14T00:58:41;6.28;;;2.40;;
10667;SDS011;5382;42.136;24.796;2023-03-14T01:01:09;4.63;;;2.85;;
10667;SDS011;5382;42.136;24.796;2023-03-14T01:03:39;5.22;;;2.30;;
10667;SDS011;5382;42.136;24.796;2023-03-14T01:06:06;6.55;;;2.33;;
10667;SDS011;5382;42.136;24.796;2023-03-14T01:08:35;3.85;;;2.47;;
10667;SDS011;5382;42.136;24.796;2023-03-14T01:11:05;5.00;;;2.42;;
10667;SDS011;5382;42.136;24.796;2023-03-14T01:13:32;3.58;;;2.72;;
10667;SDS011;5382;42.136;24.796;2023-03-14T01:16:01;5.97;;;2.60;;
10667;SDS011;5382;42.136;24.796;2023-03-14T01:18:29;2.88;;;2.40;;
10667;SDS011;5382;42.136;24.796;2023-03-14T01:20:56;5.95;;;2.20;;
10667;SDS011;5382;42.136;24.796;2023-03-14T01:23:23;6.82;;;2.70;;
10667;SDS011;5382;42.136;24.796;2023-03-14T01:25:51;6.40;;;2.72;;
10667;SDS011;5382;42.136;24.796;2023-03-14T01:28:18;3.13;;;2.50;;
10667;SDS011;5382;42.136;24.796;2023-03-14T01:30:44;4.63;;;2.92;;
10667;SDS011;5382;42.136;24.796;2023-03-14T01:33:11;2.95;;;2.67;;
10667;SDS011;5382;42.136;24.796;2023-03-14T01:35:39;2.83;;;2.53;;
10667;SDS011;5382;42.136;24.796;2023-03-14T01:38:06;3.92;;;2.63;;
10667;SDS011;5382;42.136;24.796;2023-03-14T01:40:33;4.78;;;2.55;;
10667;SDS011;5382;42.136;24.796;2023-03-14T01:43:12;5.88;;;3.10;;
10667;SDS011;5382;42.136;24.796;2023-03-14T01:48:45;4.78;;;2.83;;
10667;SDS011;5382;42.136;24.796;2023-03-14T01:51:19;7.78;;;3.00;;
10667;SDS011;5382;42.136;24.796;2023-03-14T01:53:50;11.10;;;5.38;;
10667;SDS011;5382;42.136;24.796;2023-03-14T01:56:21;6.28;;;3.42;;
10667;SDS011;5382;42.136;24.796;2023-03-14T01:58:50;7.20;;;2.50;;
10667;SDS011;5382;42.136;24.796;2023-03-14T02:01:18;6.07;;;3.00;;
10667;SDS011;5382;42.136;24.796;2023-03-14T02:03:49;7.60;;;3.25;;
10667;SDS011;5382;42.136;24.796;2023-03-14T02:06:19;5.32;;;3.03;;
10667;SDS011;5382;42.136;24.796;2023-03-14T02:08:49;5.28;;;3.45;;
10667;SDS011;5382;42.136;24.796;2023-03-14T02:11:17;10.63;;;3.45;;
10667;SDS011;5382;42.136;24.796;2023-03-14T02:13:44;6.75;;;3.45;;
10667;SDS011;5382;42.136;24.796;2023-03-14T02:16:13;5.97;;;3.03;;
10667;SDS011;5382;42.136;24.796;2023-03-14T02:18:40;6.72;;;3.53;;
10667;SDS011;5382;42.136;24.796;2023-03-14T02:21:09;3.90;;;2.78;;
10667;SDS011;5382;42.136;24.796;2023-03-14T02:23:46;6.53;;;2.80;;
10667;SDS011;5382;42.136;24.796;2023-03-14T02:26:20;7.40;;;3.65;;
10667;SDS011;5382;42.136;24.796;2023-03-14T02:28:51;4.95;;;3.42;;
10667;SDS011;5382;42.136;24.796;2023-03-14T02:31:19;6.50;;;3.60;;
10667;SDS011;5382;42.136;24.796;2023-03-14T02:33:48;6.50;;;2.97;;
10667;SDS011;5382;42.136;24.796;2023-03-14T02:36:16;6.78;;;3.17;;
10667;SDS011;5382;42.136;24.796;2023-03-14T02:38:46;6.53;;;3.65;;
10667;SDS011;5382;42.136;24.796;2023-03-14T02:41:17;4.55;;;3.22;;
10667;SDS011;5382;42.136;24.796;2023-03-14T02:43:44;6.35;;;3.25;;
10667;SDS011;5382;42.136;24.796;2023-03-14T02:46:13;8.93;;;3.40;;
10667;SDS011;5382;42.136;24.796;2023-03-14T02:48:43;10.65;;;3.45;;
10667;SDS011;5382;42.136;24.796;2023-03-14T02:51:14;3.25;;;2.92;;
10667;SDS011;5382;42.136;24.796;2023-03-14T02:53:41;7.22;;;3.25;;
10667;SDS011;5382;42.136;24.796;2023-03-14T02:56:09;6.18;;;3.55;;
10667;SDS011;5382;42.136;24.796;2023-03-14T02:58:36;4.40;;;3.03;;
10667;SDS011;5382;42.136;24.796;2023-03-14T03:01:03;3.30;;;2.70;;
10667;SDS011;5382;42.136;24.796;2023-03-14T03:03:32;5.22;;;3.40;;
10667;SDS011;5382;42.136;24.796;2023-03-14T03:05:59;9.18;;;3.47;;
10667;SDS011;5382;42.136;24.796;2023-03-14T03:08:26;6.47;;;2.65;;
10667;SDS011;5382;42.136;24.796;2023-03-14T03:10:53;12.57;;;3.78;;
10667;SDS011;5382;42.136;24.796;2023-03-14T03:13:21;7.97;;;3.75;;
10667;SDS011;5382;42.136;24.796;2023-03-14T03:15:48;9.13;;;4.50;;
10667;SDS011;5382;42.136;24.796;2023-03-14T03:18:15;7.60;;;4.20;;
10667;SDS011;5382;42.136;24.796;2023-03-14T03:20:43;10.30;;;3.45;;
10667;SDS011;5382;42.136;24.796;2023-03-14T03:23:11;10.10;;;4.50;;
10667;SDS011;5382;42.136;24.796;2023-03-14T03:25:38;9.93;;;5.22;;
10667;SDS011;5382;42.136;24.796;2023-03-14T03:28:05;8.68;;;3.78;;
10667;SDS011;5382;42.136;24.796;2023-03-14T03:30:33;6.65;;;3.88;;
10667;SDS011;5382;42.136;24.796;2023-03-14T03:33:02;8.10;;;3.53;;
10667;SDS011;5382;42.136;24.796;2023-03-14T03:35:29;5.82;;;3.85;;
10667;SDS011;5382;42.136;24.796;2023-03-14T03:37:58;6.05;;;3.40;;
10667;SDS011;5382;42.136;24.796;2023-03-14T03:40:24;8.57;;;4.15;;
10667;SDS011;5382;42.136;24.796;2023-03-14T03:42:51;7.75;;;3.83;;
10667;SDS011;5382;42.136;24.796;2023-03-14T03:45:18;5.70;;;3.40;;
10667;SDS011;5382;42.136;24.796;2023-03-14T03:47:45;6.57;;;3.95;;
10667;SDS011;5382;42.136;24.796;2023-03-14T03:50:11;8.57;;;4.10;;
10667;SDS011;5382;42.136;24.796;2023-03-14T03:52:38;5.25;;;4.00;;
10667;SDS011;5382;42.136;24.796;2023-03-14T03:55:07;7.28;;;3.90;;
10667;SDS011;5382;42.136;24.796;2023-03-14T03:57:34;6.78;;;3.83;;
10667;SDS011;5382;42.136;24.796;2023-03-14T04:00:02;6.85;;;3.53;;
10667;SDS011;5382;42.136;24.796;2023-03-14T04:02:30;10.27;;;4.25;;
10667;SDS011;5382;42.136;24.796;2023-03-14T04:04:57;6.55;;;4.03;;
10667;SDS011;5382;42.136;24.796;2023-03-14T04:07:24;7.15;;;3.85;;
10667;SDS011;5382;42.136;24.796;2023-03-14T04:09:51;9.65;;;3.33;;
10667;SDS011;5382;42.136;24.796;2023-03-14T04:12:19;9.63;;;6.72;;
10667;SDS011;5382;42.136;24.796;2023-03-14T04:14:46;7.78;;;4.00;;
10667;SDS011;5382;42.136;24.796;2023-03-14T04:17:13;6.97;;;4.00;;
10667;SDS011;5382;42.136;24.796;2023-03-14T04:19:39;7.47;;;3.92;;
10667;SDS011;5382;42.136;24.796;2023-03-14T04:22:07;8.75;;;6.25;;
10667;SDS011;5382;42.136;24.796;2023-03-14T04:24:34;10.82;;;6.97;;
10667;SDS011;5382;42.136;24.796;2023-03-14T04:27:01;10.98;;;6.40;;
10667;SDS011;5382;42.136;24.796;2023-03-14T04:29:29;8.05;;;4.88;;
10667;SDS011;5382;42.136;24.796;2023-03-14T04:31:55;9.25;;;4.93;;
10667;SDS011;5382;42.136;24.796;2023-03-14T04:34:22;9.20;;;6.93;;
10667;SDS011;5382;42.136;24.796;2023-03-14T04:36:49;8.32;;;4.95;;
10667;SDS011;5382;42.136;24.796;2023-03-14T04:39:16;5.93;;;4.80;;
10667;SDS011;5382;42.136;24.796;2023-03-14T04:41:43;10.23;;;5.43;;
10667;SDS011;5382;42.136;24.796;2023-03-14T04:44:11;6.30;;;4.57;;
10667;SDS011;5382;42.136;24.796;2023-03-14T04:46:39;7.32;;;4.75;;
10667;SDS011;5382;42.136;24.796;2023-03-14T04:49:06;6.32;;;3.67;;
10667;SDS011;5382;42.136;24.796;2023-03-14T04:51:32;10.20;;;6.88;;
10667;SDS011;5382;42.136;24.796;2023-03-14T04:53:59;8.25;;;5.07;;
10667;SDS011;5382;42.136;24.796;2023-03-14T04:56:26;8.55;;;4.70;;
10667;SDS011;5382;42.136;24.796;2023-03-14T04:58:54;9.55;;;5.60;;
10667;SDS011;5382;42.136;24.796;2023-03-14T05:01:21;14.40;;;5.68;;
10667;SDS011;5382;42.136;24.796;2023-03-14T05:03:49;7.35;;;5.03;;
10667;SDS011;5382;42.136;24.796;2023-03-14T05:06:16;7.45;;;5.07;;
10667;SDS011;5382;42.136;24.796;2023-03-14T05:08:43;9.38;;;6.00;;
10667;SDS011;5382;42.136;24.796;2023-03-14T05:11:10;11.95;;;5.78;;
10667;SDS011;5382;42.136;24.796;2023-03-14T05:13:37;13.20;;;6.43;;
10667;SDS011;5382;42.136;24.796;2023-03-14T05:16:05;11.55;;;6.38;;
10667;SDS011;5382;42.136;24.796;2023-03-14T05:18:33;9.65;;;5.53;;
10667;SDS011;5382;42.136;24.796;2023-03-14T05:21:01;8.52;;;5.43;;
10667;SDS011;5382;42.136;24.796;2023-03-14T05:23:29;10.60;;;5.75;;
10667;SDS011;5382;42.136;24.796;2023-03-14T05:25:56;15.75;;;7.57;;
10667;SDS011;5382;42.136;24.796;2023-03-14T05:28:23;9.52;;;5.90;;
10667;SDS011;5382;42.136;24.796;2023-03-14T05:30:50;10.60;;;5.57;;
10667;SDS011;5382;42.136;24.796;2023-03-14T05:33:16;10.80;;;5.75;;
10667;SDS011;5382;42.136;24.796;2023-03-14T05:35:43;14.35;;;6.30;;
10667;SDS011;5382;42.136;24.796;2023-03-14T05:38:11;11.65;;;6.03;;
10667;SDS011;5382;42.136;24.796;2023-03-14T05:40:38;9.75;;;6.65;;
10667;SDS011;5382;42.136;24.796;2023-03-14T05:43:05;11.68;;;5.93;;
10667;SDS011;5382;42.136;24.796;2023-03-14T05:45:33;12.40;;;6.93;;
10667;SDS011;5382;42.136;24.796;2023-03-14T05:48:01;10.70;;;6.05;;
10667;SDS011;5382;42.136;24.796;2023-03-14T05:50:28;10.88;;;7.07;;
10667;SDS011;5382;42.136;24.796;2023-03-14T05:52:55;11.10;;;7.30;;
10667;SDS011;5382;42.136;24.796;2023-03-14T05:55:23;18.17;;;8.43;;
10667;SDS011;5382;42.136;24.796;2023-03-14T05:57:50;16.92;;;8.70;;
10667;SDS011;5382;42.136;24.796;2023-03-14T06:00:17;17.75;;;7.80;;
10667;SDS011;5382;42.136;24.796;2023-03-14T06:02:44;14.32;;;8.90;;
10667;SDS011;5382;42.136;24.796;2023-03-14T06:05:12;17.35;;;10.38;;
10667;SDS011;5382;42.136;24.796;2023-03-14T06:07:39;19.27;;;9.73;;
10667;SDS011;5382;42.136;24.796;2023-03-14T06:10:06;18.17;;;10.10;;
10667;SDS011;5382;42.136;24.796;2023-03-14T06:12:35;29.35;;;10.48;;
10667;SDS011;5382;42.136;24.796;2023-03-14T06:15:02;15.82;;;11.35;;
10667;SDS011;5382;42.136;24.796;2023-03-14T06:17:29;22.73;;;12.43;;
10667;SDS011;5382;42.136;24.796;2023-03-14T06:19:56;19.58;;;11.05;;
10667;SDS011;5382;42.136;24.796;2023-03-14T06:22:23;24.85;;;11.23;;
10667;SDS011;5382;42.136;24.796;2023-03-14T06:24:49;18.88;;;11.93;;
10667;SDS011;5382;42.136;24.796;2023-03-14T06:27:16;15.77;;;10.00;;
10667;SDS011;5382;42.136;24.796;2023-03-14T06:29:44;18.55;;;9.38;;
10667;SDS011;5382;42.136;24.796;2023-03-14T06:32:11;22.70;;;11.52;;
10667;SDS011;5382;42.136;24.796;2023-03-14T06:34:38;18.63;;;9.68;;
10667;SDS011;5382;42.136;24.796;2023-03-14T06:37:06;17.75;;;9.50;;
10667;SDS011;5382;42.136;24.796;2023-03-14T06:39:33;17.08;;;8.90;;
10667;SDS011;5382;42.136;24.796;2023-03-14T06:42:00;21.92;;;9.85;;
10667;SDS011;5382;42.136;24.796;2023-03-14T06:44:26;11.27;;;8.35;;
10667;SDS011;5382;42.136;24.796;2023-03-14T06:46:54;13.85;;;6.82;;
10667;SDS011;5382;42.136;24.796;2023-03-14T06:49:21;9.18;;;5.68;;
10667;SDS011;5382;42.136;24.796;2023-03-14T06:51:48;12.20;;;6.05;;
10667;SDS011;5382;42.136;24.796;2023-03-14T06:54:15;8.57;;;5.75;;
10667;SDS011;5382;42.136;24.796;2023-03-14T06:56:42;10.18;;;5.35;;
10667;SDS011;5382;42.136;24.796;2023-03-14T06:59:09;13.15;;;5.30;;
10667;SDS011;5382;42.136;24.796;2023-03-14T07:01:36;8.10;;;5.00;;
10667;SDS011;5382;42.136;24.796;2023-03-14T07:04:04;7.10;;;3.95;;
10667;SDS011;5382;42.136;24.796;2023-03-14T07:06:32;8.60;;;3.55;;
10667;SDS011;5382;42.136;24.796;2023-03-14T07:08:59;9.05;;;3.67;;
10667;SDS011;5382;42.136;24.796;2023-03-14T07:11:26;4.75;;;2.92;;
10667;SDS011;5382;42.136;24.796;2023-03-14T07:13:53;3.83;;;2.65;;
10667;SDS011;5382;42.136;24.796;2023-03-14T07:16:20;5.13;;;3.70;;
10667;SDS011;5382;42.136;24.796;2023-03-14T07:18:48;8.05;;;3.60;;
10667;SDS011;5382;42.136;24.796;2023-03-14T07:21:16;8.20;;;4.60;;
10667;SDS011;5382;42.136;24.796;2023-03-14T07:23:43;9.50;;;4.13;;
10667;SDS011;5382;42.136;24.796;2023-03-14T07:26:10;3.88;;;3.25;;
10667;SDS011;5382;42.136;24.796;2023-03-14T07:28:37;4.72;;;2.92;;
10667;SDS011;5382;42.136;24.796;2023-03-14T07:31:04;4.63;;;4.05;;
10667;SDS011;5382;42.136;24.796;2023-03-14T07:33:31;5.53;;;3.38;;
10667;SDS011;5382;42.136;24.796;2023-03-14T07:35:58;2.72;;;2.33;;
10667;SDS011;5382;42.136;24.796;2023-03-14T07:38:26;4.20;;;3.13;;
10667;SDS011;5382;42.136;24.796;2023-03-14T07:40:57;3.47;;;3.10;;
10667;SDS011;5382;42.136;24.796;2023-03-14T07:43:25;3.83;;;2.88;;
10667;SDS011;5382;42.136;24.796;2023-03-14T07:45:52;4.60;;;2.70;;
10667;SDS011;5382;42.136;24.796;2023-03-14T07:48:18;6.43;;;3.33;;
10667;SDS011;5382;42.136;24.796;2023-03-14T07:50:47;5.50;;;3.40;;
10667;SDS011;5382;42.136;24.796;2023-03-14T07:53:14;11.70;;;3.53;;
10667;SDS011;5382;42.136;24.796;2023-03-14T07:55:43;4.53;;;3.40;;
10667;SDS011;5382;42.136;24.796;2023-03-14T07:58:10;4.57;;;3.30;;
10667;SDS011;5382;42.136;24.796;2023-03-14T08:00:37;8.18;;;3.17;;
10667;SDS011;5382;42.136;24.796;2023-03-14T08:03:04;7.90;;;3.92;;
10667;SDS011;5382;42.136;24.796;2023-03-14T08:05:30;5.85;;;3.75;;
10667;SDS011;5382;42.136;24.796;2023-03-14T08:08:00;6.32;;;3.70;;
10667;SDS011;5382;42.136;24.796;2023-03-14T08:10:27;6.90;;;3.13;;
10667;SDS011;5382;42.136;24.796;2023-03-14T08:12:56;6.38;;;3.42;;
10667;SDS011;5382;42.136;24.796;2023-03-14T08:15:24;4.95;;;3.58;;
10667;SDS011;5382;42.136;24.796;2023-03-14T08:17:51;6.55;;;3.70;;
10667;SDS011;5382;42.136;24.796;2023-03-14T08:20:19;4.75;;;3.50;;
10667;SDS011;5382;42.136;24.796;2023-03-14T08:22:46;7.82;;;3.42;;
10667;SDS011;5382;42.136;24.796;2023-03-14T08:25:13;5.95;;;3.40;;
10667;SDS011;5382;42.136;24.796;2023-03-14T08:27:40;6.47;;;4.07;;
10667;SDS011;5382;42.136;24.796;2023-03-14T08:30:10;4.80;;;3.40;;
10667;SDS011;5382;42.136;24.796;2023-03-14T08:32:37;6.70;;;3.45;;
10667;SDS011;5382;42.136;24.796;2023-03-14T08:35:05;5.82;;;3.60;;
10667;SDS011;5382;42.136;24.796;2023-03-14T08:37:32;6.22;;;3.10;;
10667;SDS011;5382;42.136;24.796;2023-03-14T08:40:00;5.18;;;3.50;;
10667;SDS011;5382;42.136;24.796;2023-03-14T08:42:31;4.00;;;2.88;;
10667;SDS011;5382;42.136;24.796;2023-03-14T08:44:58;4.68;;;3.30;;
10667;SDS011;5382;42.136;24.796;2023-03-14T08:47:26;5.03;;;3.55;;
10667;SDS011;5382;42.136;24.796;2023-03-14T08:49:53;3.17;;;2.88;;
10667;SDS011;5382;42.136;24.796;2023-03-14T08:52:20;6.00;;;3.30;;
10667;SDS011;5382;42.136;24.796;2023-03-14T08:54:47;4.18;;;3.15;;
10667;SDS011;5382;42.136;24.796;2023-03-14T08:57:14;3.97;;;2.72;;
10667;SDS011;5382;42.136;24.796;2023-03-14T08:59:41;4.78;;;2.88;;
10667;SDS011;5382;42.136;24.796;2023-03-14T09:02:08;4.03;;;3.20;;
10667;SDS011;5382;42.136;24.796;2023-03-14T09:04:38;5.20;;;3.05;;
10667;SDS011;5382;42.136;24.796;2023-03-14T09:07:05;4.53;;;3.90;;
10667;SDS011;5382;42.136;24.796;2023-03-14T09:09:32;4.32;;;3.58;;
10667;SDS011;5382;42.136;24.796;2023-03-14T09:11:58;6.00;;;3.25;;
10667;SDS011;5382;42.136;24.796;2023-03-14T09:14:25;5.65;;;4.40;;
10667;SDS011;5382;42.136;24.796;2023-03-14T09:16:52;9.40;;;4.03;;
10667;SDS011;5382;42.136;24.796;2023-03-14T09:19:19;9.40;;;4.32;;
10667;SDS011;5382;42.136;24.796;2023-03-14T09:21:47;4.03;;;3.63;;
10667;SDS011;5382;42.136;24.796;2023-03-14T09:24:14;5.80;;;4.63;;
10667;SDS011;5382;42.136;24.796;2023-03-14T09:26:41;4.47;;;3.40;;
10667;SDS011;5382;42.136;24.796;2023-03-14T09:29:07;5.05;;;3.95;;
10667;SDS011;5382;42.136;24.796;2023-03-14T09:31:34;5.82;;;3.47;;
10667;SDS011;5382;42.136;24.796;2023-03-14T09:34:01;5.95;;;3.13;;
10667;SDS011;5382;42.136;24.796;2023-03-14T09:36:28;6.43;;;3.50;;
10667;SDS011;5382;42.136;24.796;2023-03-14T09:38:56;3.95;;;3.55;;
10667;SDS011;5382;42.136;24.796;2023-03-14T09:41:23;4.57;;;3.85;;
10667;SDS011;5382;42.136;24.796;2023-03-14T09:43:54;4.38;;;2.63;;
10667;SDS011;5382;42.136;24.796;2023-03-14T09:46:27;5.28;;;2.85;;
10667;SDS011;5382;42.136;24.796;2023-03-14T09:48:54;5.65;;;3.42;;
10667;SDS011;5382;42.136;24.796;2023-03-14T09:51:21;4.60;;;3.72;;
10667;SDS011;5382;42.136;24.796;2023-03-14T09:53:49;4.75;;;3.38;;
10667;SDS011;5382;42.136;24.796;2023-03-14T09:56:18;4.78;;;4.13;;
10667;SDS011;5382;42.136;24.796;2023-03-14T09:58:48;5.05;;;3.47;;
10667;SDS011;5382;42.136;24.796;2023-03-14T10:01:19;5.70;;;3.90;;
10667;SDS011;5382;42.136;24.796;2023-03-14T10:03:49;6.32;;;4.65;;
10667;SDS011;5382;42.136;24.796;2023-03-14T10:06:19;6.05;;;4.53;;
10667;SDS011;5382;42.136;24.796;2023-03-14T10:08:50;4.95;;;4.20;;
10667;SDS011;5382;42.136;24.796;2023-03-14T10:11:19;5.30;;;4.13;;
10667;SDS011;5382;42.136;24.796;2023-03-14T10:13:47;4.13;;;3.25;;
10667;SDS011;5382;42.136;24.796;2023-03-14T10:16:15;8.32;;;4.30;;
10667;SDS011;5382;42.136;24.796;2023-03-14T10:18:44;6.40;;;4.57;;
10667;SDS011;5382;42.136;24.796;2023-03-14T10:21:17;6.07;;;3.40;;
10667;SDS011;5382;42.136;24.796;2023-03-14T10:23:55;7.25;;;3.63;;
10667;SDS011;5382;42.136;24.796;2023-03-14T10:26:35;7.28;;;4.03;;
10667;SDS011;5382;42.136;24.796;2023-03-14T10:29:03;6.07;;;3.63;;
10667;SDS011;5382;42.136;24.796;2023-03-14T10:31:45;30.10;;;5.38;;
10667;SDS011;5382;42.136;24.796;2023-03-14T10:34:15;5.47;;;3.55;;
10667;SDS011;5382;42.136;24.796;2023-03-14T10:36:47;14.68;;;3.47;;
10667;SDS011;5382;42.136;24.796;2023-03-14T10:39:23;6.18;;;3.10;;
10667;SDS011;5382;42.136;24.796;2023-03-14T10:41:55;5.05;;;3.47;;
10667;SDS011;5382;42.136;24.796;2023-03-14T10:44:29;6.78;;;3.60;;
10667;SDS011;5382;42.136;24.796;2023-03-14T10:46:58;5.97;;;3.47;;
10667;SDS011;5382;42.136;24.796;2023-03-14T10:49:28;3.30;;;3.00;;
10667;SDS011;5382;42.136;24.796;2023-03-14T10:51:56;5.00;;;3.58;;
10667;SDS011;5382;42.136;24.796;2023-03-14T10:54:29;3.90;;;3.50;;
10667;SDS011;5382;42.136;24.796;2023-03-14T10:56:58;4.68;;;3.40;;
10667;SDS011;5382;42.136;24.796;2023-03-14T10:59:27;8.90;;;3.13;;
10667;SDS011;5382;42.136;24.796;2023-03-14T11:01:59;3.85;;;3.08;;
10667;SDS011;5382;42.136;24.796;2023-03-14T11:04:41;3.90;;;2.72;;
10667;SDS011;5382;42.136;24.796;2023-03-14T11:07:23;4.15;;;2.53;;
10667;SDS011;5382;42.136;24.796;2023-03-14T11:09:55;4.35;;;2.78;;
10667;SDS011;5382;42.136;24.796;2023-03-14T11:12:36;5.07;;;2.83;;
10667;SDS011;5382;42.136;24.796;2023-03-14T11:15:12;2.70;;;2.42;;
10667;SDS011;5382;42.136;24.796;2023-03-14T11:17:49;3.22;;;2.40;;
10667;SDS011;5382;42.136;24.796;2023-03-14T11:20:26;3.50;;;2.40;;
10667;SDS011;5382;42.136;24.796;2023-03-14T11:22:59;2.83;;;2.50;;
10667;SDS011;5382;42.136;24.796;2023-03-14T11:25:35;3.67;;;2.53;;
10667;SDS011;5382;42.136;24.796;2023-03-14T11:28:13;5.60;;;2.90;;
10667;SDS011;5382;42.136;24.796;2023-03-14T11:30:47;3.42;;;2.60;;
10667;SDS011;5382;42.136;24.796;2023-03-14T11:33:18;3.47;;;2.58;;
10667;SDS011;5382;42.136;24.796;2023-03-14T11:35:53;4.93;;;2.65;;
10667;SDS011;5382;42.136;24.796;2023-03-14T11:38:28;4.82;;;3.03;;
10667;SDS011;5382;42.136;24.796;2023-03-14T11:40:58;4.93;;;2.65;;
10667;SDS011;5382;42.136;24.796;2023-03-14T11:43:29;3.15;;;2.35;;
10667;SDS011;5382;42.136;24.796;2023-03-14T11:46:03;4.50;;;2.88;;
10667;SDS011;5382;42.136;24.796;2023-03-14T11:48:35;6.00;;;3.20;;
10667;SDS011;5382;42.136;24.796;2023-03-14T11:51:07;4.55;;;2.40;;
10667;SDS011;5382;42.136;24.796;2023-03-14T11:53:47;11.57;;;3.15;;
10667;SDS011;5382;42.136;24.796;2023-03-14T11:56:22;4.63;;;2.72;;
10667;SDS011;5382;42.136;24.796;2023-03-14T11:58:57;17.27;;;3.97;;
10667;SDS011;5382;42.136;24.796;2023-03-14T12:01:27;4.95;;;2.15;;
10667;SDS011;5382;42.136;24.796;2023-03-14T12:04:02;4.43;;;3.17;;
10667;SDS011;5382;42.136;24.796;2023-03-14T12:06:37;4.32;;;2.90;;
10667;SDS011;5382;42.136;24.796;2023-03-14T12:09:10;3.47;;;2.65;;
10667;SDS011;5382;42.136;24.796;2023-03-14T12:11:38;3.92;;;3.22;;
10667;SDS011;5382;42.136;24.796;2023-03-14T12:14:20;15.05;;;4.07;;
10667;SDS011;5382;42.136;24.796;2023-03-14T12:16:52;4.75;;;2.90;;
10667;SDS011;5382;42.136;24.796;2023-03-14T12:19:26;5.38;;;3.13;;
10667;SDS011;5382;42.136;24.796;2023-03-14T12:21:58;7.25;;;3.33;;
10667;SDS011;5382;42.136;24.796;2023-03-14T12:24:33;3.92;;;2.92;;
10667;SDS011;5382;42.136;24.796;2023-03-14T12:27:02;5.35;;;2.80;;
10667;SDS011;5382;42.136;24.796;2023-03-14T12:29:33;3.35;;;2.67;;
10667;SDS011;5382;42.136;24.796;2023-03-14T12:32:26;4.53;;;3.15;;
10667;SDS011;5382;42.136;24.796;2023-03-14T12:34:53;5.57;;;3.47;;
10667;SDS011;5382;42.136;24.796;2023-03-14T12:37:23;5.18;;;3.20;;
10667;SDS011;5382;42.136;24.796;2023-03-14T12:42:51;10.43;;;5.03;;
10667;SDS011;5382;42.136;24.796;2023-03-14T12:45:26;5.65;;;3.63;;
10667;SDS011;5382;42.136;24.796;2023-03-14T12:50:43;4.80;;;2.95;;
10667;SDS011;5382;42.136;24.796;2023-03-14T12:56:20;3.85;;;3.00;;
10667;SDS011;5382;42.136;24.796;2023-03-14T12:59:00;5.68;;;3.10;;
10667;SDS011;5382;42.136;24.796;2023-03-14T13:01:37;10.10;;;3.75;;
10667;SDS011;5382;42.136;24.796;2023-03-14T13:04:13;4.90;;;3.78;;
10667;SDS011;5382;42.136;24.796;2023-03-14T13:12:47;3.50;;;3.20;;
10667;SDS011;5382;42.136;24.796;2023-03-14T13:15:21;4.78;;;3.42;;
10667;SDS011;5382;42.136;24.796;2023-03-14T13:17:54;6.00;;;3.45;;
10667;SDS011;5382;42.136;24.796;2023-03-14T13:20:28;14.25;;;3.72;;
10667;SDS011;5382;42.136;24.796;2023-03-14T13:22:58;4.28;;;3.55;;
10667;SDS011;5382;42.136;24.796;2023-03-14T13:25:29;4.35;;;3.50;;
10667;SDS011;5382;42.136;24.796;2023-03-14T13:27:58;3.65;;;3.35;;
10667;SDS011;5382;42.136;24.796;2023-03-14T13:30:27;6.10;;;3.53;;
10667;SDS011;5382;42.136;24.796;2023-03-14T13:32:56;20.80;;;3.47;;
10667;SDS011;5382;42.136;24.796;2023-03-14T13:35:24;4.00;;;2.55;;
10667;SDS011;5382;42.136;24.796;2023-03-14T13:37:56;5.00;;;2.70;;
10667;SDS011;5382;42.136;24.796;2023-03-14T13:40:26;10.23;;;3.50;;
10667;SDS011;5382;42.136;24.796;2023-03-14T13:43:03;4.70;;;3.08;;
10667;SDS011;5382;42.136;24.796;2023-03-14T13:45:41;6.80;;;3.50;;
10667;SDS011;5382;42.136;24.796;2023-03-14T13:48:12;7.00;;;3.05;;
10667;SDS011;5382;42.136;24.796;2023-03-14T13:50:44;3.88;;;2.88;;
10667;SDS011;5382;42.136;24.796;2023-03-14T13:53:24;4.45;;;2.88;;
10667;SDS011;5382;42.136;24.796;2023-03-14T13:55:51;3.45;;;3.03;;
10667;SDS011;5382;42.136;24.796;2023-03-14T13:58:22;4.25;;;2.85;;
10667;SDS011;5382;42.136;24.796;2023-03-14T14:03:42;5.00;;;2.67;;
10667;SDS011;5382;42.136;24.796;2023-03-14T14:06:16;3.83;;;2.83;;
10667;SDS011;5382;42.136;24.796;2023-03-14T14:08:51;4.13;;;2.95;;
10667;SDS011;5382;42.136;24.796;2023-03-14T14:11:22;3.63;;;2.90;;
10667;SDS011;5382;42.136;24.796;2023-03-14T14:14:02;2.75;;;2.47;;
10667;SDS011;5382;42.136;24.796;2023-03-14T14:16:32;2.58;;;2.38;;
10667;SDS011;5382;42.136;24.796;2023-03-14T14:19:00;4.50;;;2.65;;
10667;SDS011;5382;42.136;24.796;2023-03-14T14:21:28;3.85;;;2.70;;
10667;SDS011;5382;42.136;24.796;2023-03-14T14:23:56;3.92;;;2.63;;
10667;SDS011;5382;42.136;24.796;2023-03-14T14:26:25;3.35;;;2.35;;
10667;SDS011;5382;42.136;24.796;2023-03-14T14:28:58;2.90;;;2.60;;
10667;SDS011;5382;42.136;24.796;2023-03-14T14:31:27;3.58;;;2.65;;
10667;SDS011;5382;42.136;24.796;2023-03-14T14:33:55;3.90;;;3.00;;
10667;SDS011;5382;42.136;24.796;2023-03-14T14:36:25;5.75;;;2.97;;
10667;SDS011;5382;42.136;24.796;2023-03-14T14:38:57;3.80;;;3.35;;
10667;SDS011;5382;42.136;24.796;2023-03-14T14:41:28;4.28;;;3.17;;
10667;SDS011;5382;42.136;24.796;2023-03-14T14:43:56;13.75;;;4.00;;
10667;SDS011;5382;42.136;24.796;2023-03-14T14:46:25;4.72;;;3.60;;
10667;SDS011;5382;42.136;24.796;2023-03-14T14:48:56;8.80;;;3.55;;
10667;SDS011;5382;42.136;24.796;2023-03-14T14:51:30;5.97;;;3.50;;
10667;SDS011;5382;42.136;24.796;2023-03-14T14:54:00;81.22;;;7.57;;
10667;SDS011;5382;42.136;24.796;2023-03-14T14:56:34;61.42;;;7.10;;
10667;SDS011;5382;42.136;24.796;2023-03-14T14:59:03;6.15;;;3.30;;
10667;SDS011;5382;42.136;24.796;2023-03-14T15:01:33;3.60;;;3.10;;
10667;SDS011;5382;42.136;24.796;2023-03-14T15:04:03;5.82;;;3.97;;
10667;SDS011;5382;42.136;24.796;2023-03-14T15:06:37;3.60;;;3.30;;
10667;SDS011;5382;42.136;24.796;2023-03-14T15:09:04;5.15;;;3.38;;
10667;SDS011;5382;42.136;24.796;2023-03-14T15:11:31;5.95;;;3.35;;
10667;SDS011;5382;42.136;24.796;2023-03-14T15:13:58;4.35;;;3.00;;
10667;SDS011;5382;42.136;24.796;2023-03-14T15:16:27;6.53;;;2.90;;
10667;SDS011;5382;42.136;24.796;2023-03-14T15:18:56;5.57;;;3.22;;